Time;durP1;ratioP1;P1;durP2;ratioP2;P2;SDS_P1;SDS_P2;PMS_P1;PMS_P2;Temp;Humidity;BMP_temperature;BMP_pressure;BME280_temperature;BME280_humidity;BME280_pressure;Samples;Min_cycle;Max_cycle;Signal;HPM_P1;HPM_P2
2024/01/15 00:01:34;;;;;;;32.85;23.17;;;12.40;84.40;;;;;;5035800;28;20131;-75
2024/01/15 00:04:00;;;;;;;33.78;22.13;;;12.40;84.10;;;;;;5035494;28;20054;-77
2024/01/15 00:06:28;;;;;;;30.27;22.50;;;12.40;84.10;;;;;;5035368;28;20042;-76
2024/01/15 00:08:54;;;;;;;30.00;23.27;;;12.40;84.20;;;;;;5017416;28;20374;-77
2024/01/15 00:11:20;;;;;;;32.33;21.52;;;12.40;84.50;;;;;;5033066;28;20033;-76
2024/01/15 00:13:45;;;;;;;26.83;21.98;;;12.40;84.60;;;;;;5015697;28;20048;-76
2024/01/15 00:16:11;;;;;;;27.00;22.25;;;12.40;84.50;;;;;;5015464;28;20108;-75
2024/01/15 00:18:37;;;;;;;26.75;21.15;;;12.40;84.40;;;;;;5015644;28;20038;-77
2024/01/15 00:21:03;;;;;;;27.15;21.60;;;12.40;84.20;;;;;;5015803;28;20039;-77
2024/01/15 00:23:29;;;;;;;27.80;21.60;;;12.30;84.60;;;;;;5015272;28;20511;-76
2024/01/15 00:25:55;;;;;;;30.70;22.00;;;12.30;84.40;;;;;;5015423;28;20147;-77
2024/01/15 00:28:21;;;;;;;30.40;20.83;;;12.40;85.20;;;;;;5032272;28;20028;-76
2024/01/15 00:30:46;;;;;;;26.73;21.40;;;12.30;84.30;;;;;;5035358;28;20102;-76
2024/01/15 00:33:12;;;;;;;30.00;21.75;;;12.30;84.50;;;;;;5035208;28;20033;-76
2024/01/15 00:35:38;;;;;;;26.20;22.00;;;12.30;84.50;;;;;;5034893;28;20040;-77
2024/01/15 00:38:04;;;;;;;28.23;21.42;;;12.20;84.50;;;;;;5017391;28;20120;-76
2024/01/15 00:40:29;;;;;;;26.63;21.17;;;12.20;84.80;;;;;;5035202;28;20038;-77
2024/01/15 00:42:55;;;;;;;27.77;21.45;;;12.30;84.90;;;;;;5034974;28;20116;-76
2024/01/15 00:45:21;;;;;;;30.08;21.33;;;12.30;84.80;;;;;;5034780;28;20033;-76
2024/01/15 00:47:47;;;;;;;26.30;21.15;;;12.30;84.90;;;;;;5034562;28;20133;-77
2024/01/15 00:50:13;;;;;;;26.02;20.95;;;12.30;84.70;;;;;;5016787;28;20121;-78
2024/01/15 00:52:38;;;;;;;27.05;20.10;;;12.30;84.80;;;;;;5034671;28;20069;-77
2024/01/15 00:55:05;;;;;;;27.80;21.25;;;12.30;84.80;;;;;;5034436;28;20029;-76
2024/01/15 00:57:31;;;;;;;27.35;20.55;;;12.30;85.30;;;;;;5034215;28;20116;-77
2024/01/15 00:59:56;;;;;;;23.10;19.10;;;12.30;85.00;;;;;;5034511;28;20061;-77
2024/01/15 01:02:22;;;;;;;24.40;18.27;;;12.20;84.80;;;;;;5034157;28;20046;-75
2024/01/15 01:04:48;;;;;;;21.95;18.75;;;12.20;85.40;;;;;;5034205;28;20033;-76
2024/01/15 01:07:13;;;;;;;23.77;19.13;;;12.30;85.20;;;;;;5034385;28;20156;-76
2024/01/15 01:09:39;;;;;;;24.80;19.35;;;12.30;84.90;;;;;;5034530;28;20489;-77
2024/01/15 01:12:05;;;;;;;23.13;18.58;;;12.30;84.90;;;;;;5034007;28;20092;-76
2024/01/15 01:14:32;;;;;;;23.10;17.98;;;12.30;85.30;;;;;;5034293;28;20030;-77
2024/01/15 01:16:57;;;;;;;22.83;18.48;;;12.30;85.10;;;;;;5034016;28;20043;-76
2024/01/15 01:19:25;;;;;;;23.95;18.13;;;12.30;85.30;;;;;;5033801;28;20113;-77
2024/01/15 01:21:51;;;;;;;24.25;18.27;;;12.30;85.30;;;;;;5034139;28;20171;-75
2024/01/15 01:24:17;;;;;;;24.75;19.50;;;12.30;84.80;;;;;;5033878;28;20092;-75
2024/01/15 01:26:42;;;;;;;24.38;19.08;;;12.20;84.80;;;;;;5033687;28;20042;-76
2024/01/15 01:29:08;;;;;;;26.38;19.63;;;12.20;85.10;;;;;;5033876;28;20030;-76
2024/01/15 01:31:34;;;;;;;24.67;19.80;;;12.20;85.40;;;;;;5033589;28;20406;-77
2024/01/15 01:33:59;;;;;;;25.90;19.75;;;12.20;85.50;;;;;;5033354;28;20036;-75
2024/01/15 01:36:25;;;;;;;23.52;18.85;;;12.10;86.00;;;;;;5033828;28;20370;-76
2024/01/15 01:38:51;;;;;;;25.05;20.88;;;12.00;86.00;;;;;;5033654;28;20025;-76
2024/01/15 01:41:17;;;;;;;24.65;18.88;;;12.00;86.60;;;;;;5015735;28;20045;-76
2024/01/15 01:43:43;;;;;;;23.83;19.42;;;11.90;86.70;;;;;;5033127;28;20500;-75
2024/01/15 01:46:09;;;;;;;26.42;20.50;;;11.90;87.10;;;;;;5033271;28;20041;-75
2024/01/15 01:48:36;;;;;;;24.33;19.20;;;11.90;86.90;;;;;;5015609;28;20120;-76
2024/01/15 01:51:04;;;;;;;24.92;19.48;;;12.00;87.10;;;;;;5033501;28;20168;-76
2024/01/15 01:53:30;;;;;;;24.98;20.48;;;12.00;86.90;;;;;;5033265;28;20065;-76
2024/01/15 01:55:57;;;;;;;24.95;19.15;;;12.00;87.10;;;;;;5032745;28;20034;-77
2024/01/15 01:58:23;;;;;;;23.60;19.40;;;12.00;87.40;;;;;;5033237;28;20026;-76
2024/01/15 02:00:49;;;;;;;22.52;18.13;;;11.90;87.80;;;;;;5033599;28;20040;-77
2024/01/15 02:03:15;;;;;;;25.02;19.02;;;11.90;87.80;;;;;;5034794;28;20384;-77
2024/01/15 02:05:44;;;;;;;25.25;18.77;;;11.90;87.90;;;;;;5033781;28;20083;-76
2024/01/15 02:08:10;;;;;;;25.50;20.02;;;12.00;88.20;;;;;;5033080;28;20050;-75
2024/01/15 02:10:36;;;;;;;23.27;19.35;;;12.00;88.20;;;;;;5033005;28;20144;-75
2024/01/15 02:13:02;;;;;;;27.58;18.75;;;12.10;88.60;;;;;;5032719;28;20065;-75
2024/01/15 02:15:28;;;;;;;23.23;18.33;;;12.10;88.50;;;;;;5014827;28;20448;-75
2024/01/15 02:18:01;;;;;;;25.95;18.60;;;12.10;88.70;;;;;;5034293;28;20120;-75
2024/01/15 02:20:27;;;;;;;24.13;19.23;;;12.10;89.20;;;;;;5016733;28;20501;-75
2024/01/15 02:22:53;;;;;;;24.55;18.80;;;12.10;89.20;;;;;;5015865;28;20056;-75
2024/01/15 02:25:19;;;;;;;26.58;19.70;;;12.10;89.70;;;;;;5033092;28;20104;-75
2024/01/15 02:27:46;;;;;;;24.00;19.95;;;12.00;89.70;;;;;;5032514;28;20546;-75
2024/01/15 02:30:12;;;;;;;24.58;20.35;;;11.90;90.00;;;;;;5033096;28;20029;-76
2024/01/15 02:32:38;;;;;;;23.10;19.02;;;11.90;90.20;;;;;;5032998;28;20045;-76
2024/01/15 02:35:04;;;;;;;24.45;19.40;;;11.80;90.30;;;;;;5032857;28;20030;-76
2024/01/15 02:37:30;;;;;;;25.92;19.10;;;11.80;90.30;;;;;;5032870;28;20429;-76
2024/01/15 02:39:56;;;;;;;26.90;19.90;;;11.90;90.50;;;;;;5032626;28;20033;-76
2024/01/15 02:42:21;;;;;;;23.48;19.33;;;11.90;90.40;;;;;;5032950;28;20045;-76
2024/01/15 02:44:48;;;;;;;23.20;18.80;;;11.90;90.60;;;;;;5032946;28;20137;-77
2024/01/15 02:47:14;;;;;;;25.13;19.98;;;11.90;90.60;;;;;;5015013;28;20045;-76
2024/01/15 02:49:40;;;;;;;23.45;19.20;;;11.80;90.70;;;;;;5032828;28;20157;-77
2024/01/15 02:52:06;;;;;;;26.23;19.60;;;11.90;90.70;;;;;;5032146;28;20358;-76
2024/01/15 02:54:31;;;;;;;21.05;17.95;;;11.80;90.80;;;;;;5032380;28;20040;-75
2024/01/15 02:56:57;;;;;;;22.67;17.77;;;11.70;91.00;;;;;;5032406;28;20115;-76
2024/01/15 02:59:23;;;;;;;22.40;18.05;;;11.70;91.00;;;;;;5032220;28;20034;-75
2024/01/15 03:01:48;;;;;;;22.48;17.48;;;11.70;91.00;;;;;;5032504;28;20056;-75
2024/01/15 03:04:14;;;;;;;22.13;18.38;;;11.70;91.00;;;;;;5032478;28;20025;-75
2024/01/15 03:06:40;;;;;;;21.70;17.58;;;11.80;91.10;;;;;;5032095;28;20053;-74
2024/01/15 03:09:05;;;;;;;21.13;16.15;;;11.90;91.10;;;;;;5032390;28;20029;-75
2024/01/15 03:11:38;;;;;;;19.83;15.45;;;11.90;91.10;;;;;;5031923;28;20030;-74
2024/01/15 03:14:04;;;;;;;17.92;14.27;;;11.90;91.10;;;;;;5032191;28;20041;-76
2024/01/15 03:16:30;;;;;;;20.42;15.20;;;11.90;91.10;;;;;;5032343;28;20041;-77
2024/01/15 03:18:55;;;;;;;20.08;16.23;;;11.90;91.10;;;;;;5032048;28;20485;-75
2024/01/15 03:21:21;;;;;;;21.80;15.90;;;11.90;91.10;;;;;;5014377;28;20508;-76
2024/01/15 03:23:47;;;;;;;23.58;16.45;;;12.00;91.20;;;;;;5031934;28;20092;-75
2024/01/15 03:26:12;;;;;;;19.77;16.45;;;11.90;91.30;;;;;;5031919;28;20089;-77
2024/01/15 03:28:38;;;;;;;19.88;14.65;;;11.90;91.40;;;;;;5032075;28;20477;-75
2024/01/15 03:31:04;;;;;;;19.85;15.75;;;11.80;91.30;;;;;;5032046;28;20037;-76
2024/01/15 03:33:30;;;;;;;23.85;18.02;;;11.70;91.20;;;;;;5032030;28;20022;-75
2024/01/15 03:35:56;;;;;;;20.60;16.77;;;11.70;91.40;;;;;;5032222;28;20465;-76
2024/01/15 03:38:23;;;;;;;19.65;15.85;;;11.70;91.60;;;;;;5014084;28;20053;-76
2024/01/15 03:40:49;;;;;;;21.45;15.38;;;11.70;91.70;;;;;;5031875;28;20037;-76
2024/01/15 03:43:14;;;;;;;19.88;14.68;;;11.60;91.70;;;;;;5032075;28;20041;-76
2024/01/15 03:45:40;;;;;;;19.83;15.20;;;11.60;91.80;;;;;;5033014;28;20033;-77
2024/01/15 03:48:06;;;;;;;20.42;14.18;;;11.60;92.10;;;;;;5032645;28;20056;-76
2024/01/15 03:50:31;;;;;;;21.58;15.15;;;11.70;91.90;;;;;;5033395;28;20050;-76
2024/01/15 03:52:57;;;;;;;19.77;14.50;;;11.70;92.00;;;;;;5014070;28;20029;-76
2024/01/15 03:55:23;;;;;;;17.17;12.90;;;11.80;92.00;;;;;;5032258;28;20029;-76
2024/01/15 03:57:48;;;;;;;19.13;11.50;;;11.80;92.00;;;;;;5031951;28;20491;-76
2024/01/15 04:00:17;;;;;;;15.68;12.50;;;11.90;91.90;;;;;;5031750;28;20051;-75
2024/01/15 04:02:44;;;;;;;15.93;12.10;;;11.90;91.90;;;;;;5032026;28;20021;-77
2024/01/15 04:05:09;;;;;;;17.63;12.20;;;11.90;92.00;;;;;;5035284;28;20033;-76
2024/01/15 04:07:35;;;;;;;18.80;12.30;;;11.90;92.10;;;;;;5035178;28;20029;-77
2024/01/15 04:10:01;;;;;;;15.88;12.30;;;11.90;92.10;;;;;;5035246;28;20033;-76
2024/01/15 04:12:27;;;;;;;15.55;12.18;;;12.00;92.20;;;;;;5035101;28;20030;-76
2024/01/15 04:14:52;;;;;;;16.33;11.73;;;12.00;92.10;;;;;;5035187;28;20605;-76
2024/01/15 04:17:18;;;;;;;16.45;11.85;;;12.00;92.30;;;;;;5035090;28;20034;-75
2024/01/15 04:19:44;;;;;;;20.38;12.85;;;12.00;92.30;;;;;;5035081;28;20033;-76
2024/01/15 04:22:10;;;;;;;16.30;11.85;;;12.00;92.30;;;;;;5035222;28;20021;-78
2024/01/15 04:24:36;;;;;;;17.17;13.07;;;12.10;92.40;;;;;;5035011;28;20037;-76
2024/01/15 04:27:01;;;;;;;15.25;11.57;;;12.00;92.40;;;;;;5035325;28;20041;-77
2024/01/15 04:29:27;;;;;;;16.10;12.13;;;12.10;92.50;;;;;;5017437;28;20165;-77
2024/01/15 04:31:53;;;;;;;17.23;12.15;;;12.00;92.40;;;;;;5035499;28;20117;-76
2024/01/15 04:34:19;;;;;;;15.40;10.93;;;12.00;92.50;;;;;;5034866;28;20124;-77
2024/01/15 04:36:44;;;;;;;17.13;12.63;;;11.90;92.50;;;;;;5017119;28;20423;-76
2024/01/15 04:39:11;;;;;;;16.55;11.00;;;11.90;92.70;;;;;;5035735;28;20029;-75
2024/01/15 04:41:37;;;;;;;17.17;11.80;;;11.80;92.70;;;;;;5038011;28;20062;-74
2024/01/15 04:44:03;;;;;;;15.80;11.68;;;11.80;92.70;;;;;;5034587;28;20437;-76
2024/01/15 04:46:28;;;;;;;14.25;10.68;;;11.80;92.80;;;;;;5016930;28;20053;-75
2024/01/15 04:48:54;;;;;;;15.48;11.30;;;11.70;92.80;;;;;;5034191;28;20434;-76
2024/01/15 04:51:20;;;;;;;16.42;10.48;;;11.70;92.90;;;;;;5034140;28;20041;-77
2024/01/15 04:53:45;;;;;;;17.08;10.55;;;11.80;93.00;;;;;;5034300;28;20037;-77
2024/01/15 04:56:11;;;;;;;15.85;10.02;;;11.80;92.90;;;;;;5034242;28;20026;-76
2024/01/15 04:58:37;;;;;;;16.05;11.13;;;11.80;93.00;;;;;;5034561;28;20049;-75
2024/01/15 05:01:03;;;;;;;14.52;10.02;;;11.90;93.10;;;;;;5034468;28;20037;-75
2024/01/15 05:03:29;;;;;;;17.60;10.38;;;11.90;93.00;;;;;;5034106;28;20044;-74
2024/01/15 05:05:55;;;;;;;15.88;10.13;;;12.00;93.10;;;;;;5034014;28;20029;-76
2024/01/15 05:08:21;;;;;;;14.25;10.02;;;12.00;93.00;;;;;;5034142;28;20037;-75
2024/01/15 05:10:47;;;;;;;17.05;11.20;;;12.10;93.00;;;;;;5016415;28;20037;-78
2024/01/15 05:13:13;;;;;;;15.00;10.60;;;12.10;93.10;;;;;;5033937;28;20044;-76
2024/01/15 05:15:39;;;;;;;13.80;9.55;;;12.20;93.10;;;;;;5033550;28;20033;-76
2024/01/15 05:18:05;;;;;;;13.68;9.65;;;12.20;93.20;;;;;;5034050;28;20057;-75
2024/01/15 05:20:31;;;;;;;14.88;9.80;;;12.20;93.20;;;;;;5016023;28;20454;-78
2024/01/15 05:22:56;;;;;;;13.70;9.05;;;12.20;93.20;;;;;;5015815;28;20408;-75
2024/01/15 05:25:22;;;;;;;15.05;9.30;;;12.20;93.20;;;;;;5033832;28;20034;-76
2024/01/15 05:27:48;;;;;;;13.48;8.90;;;12.20;93.30;;;;;;5033994;28;20052;-76
2024/01/15 05:30:14;;;;;;;11.23;8.23;;;12.20;93.30;;;;;;5033807;28;20033;-75
2024/01/15 05:32:40;;;;;;;16.75;10.35;;;12.20;93.30;;;;;;5033700;28;20092;-77
2024/01/15 05:35:06;;;;;;;13.93;9.70;;;12.20;93.40;;;;;;5033788;28;20097;-77
2024/01/15 05:37:32;;;;;;;13.75;9.73;;;12.20;93.40;;;;;;5035744;28;20033;-77
2024/01/15 05:39:57;;;;;;;14.35;9.63;;;12.20;93.40;;;;;;5035233;28;20033;-77
2024/01/15 05:42:23;;;;;;;13.50;9.27;;;12.30;93.50;;;;;;5033871;28;20040;-77
2024/01/15 05:44:49;;;;;;;11.82;8.57;;;12.20;93.50;;;;;;5033864;28;20026;-76
2024/01/15 05:47:14;;;;;;;14.18;9.70;;;12.20;93.60;;;;;;5033376;28;20478;-77
2024/01/15 05:49:40;;;;;;;15.40;9.43;;;12.20;93.60;;;;;;5031825;28;20537;-78
2024/01/15 05:52:06;;;;;;;14.93;8.73;;;12.20;93.80;;;;;;5040160;28;20029;-75
2024/01/15 05:54:32;;;;;;;14.85;8.32;;;12.20;93.80;;;;;;5052918;28;20112;-75
2024/01/15 05:56:58;;;;;;;12.10;8.02;;;12.30;93.90;;;;;;5052852;28;20104;-75
2024/01/15 05:59:23;;;;;;;13.30;9.07;;;12.30;93.80;;;;;;5052630;28;20037;-74
2024/01/15 06:01:49;;;;;;;16.70;9.73;;;12.30;93.90;;;;;;5052754;28;20445;-75
2024/01/15 06:04:15;;;;;;;14.60;9.15;;;12.30;94.00;;;;;;5052686;28;20044;-74
2024/01/15 06:06:40;;;;;;;14.57;8.68;;;12.30;94.00;;;;;;5052411;28;20049;-73
2024/01/15 06:09:06;;;;;;;14.65;10.13;;;12.30;94.00;;;;;;5052590;28;20488;-74
2024/01/15 06:11:32;;;;;;;18.02;12.05;;;12.30;94.00;;;;;;5052544;28;20060;-74
2024/01/15 06:13:58;;;;;;;13.13;8.73;;;12.30;94.20;;;;;;5052831;28;20377;-73
2024/01/15 06:16:24;;;;;;;15.15;8.80;;;12.40;94.20;;;;;;5052343;28;20029;-73
2024/01/15 06:18:50;;;;;;;12.85;7.43;;;12.40;94.20;;;;;;5052364;28;20480;-73
2024/01/15 06:21:16;;;;;;;12.73;6.88;;;12.40;94.20;;;;;;5052456;28;20033;-73
2024/01/15 06:23:42;;;;;;;10.82;6.07;;;12.40;94.20;;;;;;5052288;28;20029;-73
2024/01/15 06:26:08;;;;;;;14.15;6.30;;;12.50;94.30;;;;;;5051478;28;20361;-73
2024/01/15 06:28:33;;;;;;;11.75;6.35;;;12.50;94.30;;;;;;5052667;28;20430;-73
2024/01/15 06:30:59;;;;;;;18.45;7.82;;;12.50;94.40;;;;;;5052130;28;20084;-74
2024/01/15 06:33:25;;;;;;;21.08;6.85;;;12.50;94.30;;;;;;5052376;28;20037;-72
2024/01/15 06:35:50;;;;;;;11.32;5.65;;;12.50;94.40;;;;;;5052247;28;20116;-74
2024/01/15 06:38:16;;;;;;;10.40;6.07;;;12.50;94.40;;;;;;5052284;28;20041;-74
2024/01/15 06:40:45;;;;;;;14.57;5.47;;;12.50;94.50;;;;;;5052456;28;20029;-73
2024/01/15 06:43:15;;;;;;;13.07;6.28;;;12.50;94.50;;;;;;5052309;28;20033;-74
2024/01/15 06:45:41;;;;;;;13.55;5.90;;;12.50;94.60;;;;;;5052202;28;20087;-75
2024/01/15 06:48:07;;;;;;;14.00;5.38;;;12.40;94.50;;;;;;5052384;28;20481;-74
2024/01/15 06:50:33;;;;;;;10.75;4.95;;;12.40;94.60;;;;;;5035121;28;20050;-73
2024/01/15 06:52:59;;;;;;;11.48;5.32;;;12.50;94.70;;;;;;5031840;28;20375;-72
2024/01/15 06:55:25;;;;;;;10.68;5.55;;;12.40;94.50;;;;;;5013931;28;20041;-72
2024/01/15 06:57:53;;;;;;;14.45;5.18;;;12.40;94.60;;;;;;5032499;28;20069;-73
2024/01/15 07:00:19;;;;;;;13.63;5.53;;;12.40;94.00;;;;;;5032336;28;20034;-72
2024/01/15 07:02:45;;;;;;;16.10;6.47;;;12.50;94.60;;;;;;5032178;28;20605;-72
2024/01/15 07:05:11;;;;;;;13.18;4.82;;;12.70;94.60;;;;;;5014481;28;20426;-73
2024/01/15 07:07:37;;;;;;;13.57;5.35;;;12.80;94.60;;;;;;5032316;28;20401;-73
2024/01/15 07:10:04;;;;;;;13.77;5.35;;;13.00;94.20;;;;;;5032414;28;20037;-72
2024/01/15 07:12:30;;;;;;;13.88;5.68;;;13.10;93.90;;;;;;5032354;28;20048;-72
2024/01/15 07:14:56;;;;;;;16.13;5.63;;;13.10;94.00;;;;;;5032111;28;20029;-72
2024/01/15 07:17:22;;;;;;;12.13;4.68;;;13.00;94.00;;;;;;5032323;28;20508;-72
2024/01/15 07:19:48;;;;;;;13.43;4.72;;;12.90;94.00;;;;;;5031999;28;20034;-72
2024/01/15 07:22:17;;;;;;;12.55;5.07;;;12.90;94.10;;;;;;5014461;28;20441;-74
2024/01/15 07:24:43;;;;;;;13.13;4.95;;;12.80;94.20;;;;;;5032921;28;20037;-73
2024/01/15 07:27:09;;;;;;;13.25;5.35;;;12.80;94.30;;;;;;5032892;28;20132;-73
2024/01/15 07:29:38;;;;;;;15.75;5.95;;;12.80;94.40;;;;;;5032287;28;20104;-73
2024/01/15 07:32:04;;;;;;;13.52;4.80;;;12.80;94.10;;;;;;5031911;28;20493;-73
2024/01/15 07:34:30;;;;;;;14.18;5.07;;;12.80;94.10;;;;;;5032118;28;20485;-73
2024/01/15 07:36:57;;;;;;;13.80;5.00;;;12.90;94.30;;;;;;5032514;28;20378;-73
2024/01/15 07:39:24;;;;;;;13.77;5.35;;;13.40;94.00;;;;;;5035539;28;20105;-73
2024/01/15 07:41:50;;;;;;;17.02;5.50;;;13.50;93.50;;;;;;5036406;28;20033;-72
2024/01/15 07:44:16;;;;;;;18.33;5.57;;;13.50;93.50;;;;;;5035946;28;20422;-73
2024/01/15 07:46:48;;;;;;;14.27;5.72;;;13.50;93.40;;;;;;5036155;28;20034;-74
2024/01/15 07:49:14;;;;;;;17.60;5.85;;;13.50;93.60;;;;;;5035530;28;20081;-73
2024/01/15 07:51:40;;;;;;;17.60;5.38;;;13.50;93.40;;;;;;5035669;28;20029;-72
2024/01/15 07:54:06;;;;;;;10.57;4.93;;;13.50;93.50;;;;;;5035541;28;20037;-74
2024/01/15 07:56:32;;;;;;;14.48;5.28;;;13.50;93.40;;;;;;5034279;28;20029;-74
2024/01/15 07:58:58;;;;;;;16.58;5.40;;;13.50;93.40;;;;;;5035269;28;20045;-73
2024/01/15 08:01:24;;;;;;;14.55;5.05;;;13.50;93.40;;;;;;5035511;28;20111;-72
2024/01/15 08:03:50;;;;;;;17.40;5.53;;;13.50;93.40;;;;;;5035689;28;20034;-74
2024/01/15 08:06:15;;;;;;;11.65;4.68;;;13.50;93.40;;;;;;5035435;28;20045;-73
2024/01/15 08:08:41;;;;;;;11.27;5.13;;;13.60;93.30;;;;;;5035517;28;20431;-72
2024/01/15 08:11:07;;;;;;;12.57;5.50;;;13.70;93.30;;;;;;5017467;28;20520;-72
2024/01/15 08:13:33;;;;;;;13.68;6.07;;;13.80;93.20;;;;;;5035385;28;20513;-73
2024/01/15 08:15:58;;;;;;;15.60;5.45;;;13.80;93.00;;;;;;5035406;28;20040;-74
2024/01/15 08:18:25;;;;;;;12.98;5.40;;;13.90;93.10;;;;;;5035452;28;20029;-73
2024/01/15 08:20:52;;;;;;;18.75;6.32;;;13.90;93.10;;;;;;5035358;28;20041;-74
2024/01/15 08:23:17;;;;;;;17.20;5.32;;;13.90;93.00;;;;;;5035138;28;20457;-73
2024/01/15 08:25:43;;;;;;;15.05;6.35;;;13.90;92.80;;;;;;5034991;28;20048;-73
2024/01/15 08:28:09;;;;;;;13.75;5.00;;;14.00;92.90;;;;;;5035054;28;20072;-73
2024/01/15 08:30:34;;;;;;;13.63;4.88;;;14.00;93.00;;;;;;5034886;28;20033;-72
2024/01/15 08:33:00;;;;;;;17.05;5.22;;;14.00;92.80;;;;;;5017134;28;20040;-75
2024/01/15 08:35:26;;;;;;;14.52;5.80;;;14.10;92.90;;;;;;5035041;28;20041;-74
2024/01/15 08:37:55;;;;;;;16.67;5.35;;;14.10;92.80;;;;;;5034713;28;20497;-72
2024/01/15 08:40:20;;;;;;;14.95;5.78;;;14.10;92.90;;;;;;5017070;28;20434;-72
2024/01/15 08:42:46;;;;;;;17.70;5.88;;;14.10;92.80;;;;;;5016695;28;20157;-73
2024/01/15 08:45:12;;;;;;;14.15;6.50;;;14.10;92.80;;;;;;5034927;28;20041;-73
2024/01/15 08:47:38;;;;;;;18.48;6.07;;;14.10;92.80;;;;;;5034918;28;20104;-75
2024/01/15 08:50:04;;;;;;;16.20;5.72;;;14.10;92.60;;;;;;5033619;28;20468;-73
2024/01/15 08:52:30;;;;;;;18.30;6.03;;;14.10;92.70;;;;;;5034714;28;20044;-73
2024/01/15 08:54:57;;;;;;;17.17;5.57;;;14.10;92.70;;;;;;5016604;28;20120;-72
2024/01/15 08:57:23;;;;;;;17.48;6.10;;;14.20;92.70;;;;;;5034588;28;20044;-73
2024/01/15 08:59:49;;;;;;;16.67;6.03;;;14.20;92.60;;;;;;5034312;28;20033;-72
2024/01/15 09:02:14;;;;;;;15.18;6.50;;;14.30;92.70;;;;;;5034467;28;20105;-73
2024/01/15 09:04:41;;;;;;;20.48;6.50;;;14.30;92.60;;;;;;5034520;28;20033;-73
2024/01/15 09:07:08;;;;;;;14.95;5.55;;;14.40;92.60;;;;;;5034523;28;20528;-73
2024/01/15 09:09:34;;;;;;;18.42;6.35;;;14.40;92.50;;;;;;5034161;28;20021;-73
2024/01/15 09:12:00;;;;;;;17.50;6.88;;;14.40;92.50;;;;;;5016690;28;20035;-73
2024/01/15 09:14:26;;;;;;;18.02;6.07;;;14.40;92.40;;;;;;5034372;28;20100;-73
2024/01/15 09:16:53;;;;;;;16.13;6.00;;;14.40;92.60;;;;;;5034328;28;20047;-72
2024/01/15 09:19:19;;;;;;;17.88;6.18;;;14.40;92.40;;;;;;5034272;28;20034;-74
2024/01/15 09:21:45;;;;;;;16.13;5.97;;;14.50;92.50;;;;;;5033832;28;20096;-73
2024/01/15 09:24:11;;;;;;;18.55;5.78;;;14.40;92.50;;;;;;5034017;28;20037;-73
2024/01/15 09:26:37;;;;;;;21.95;6.40;;;14.50;92.50;;;;;;5034164;28;20045;-72
2024/01/15 09:29:02;;;;;;;20.48;7.18;;;14.50;92.50;;;;;;5033954;28;20029;-73
2024/01/15 09:31:28;;;;;;;27.00;7.20;;;14.50;92.40;;;;;;5033553;28;20095;-73
2024/01/15 09:34:00;;;;;;;21.48;7.28;;;14.50;92.40;;;;;;5033830;28;20386;-72
2024/01/15 09:36:25;;;;;;;20.35;6.90;;;14.50;92.50;;;;;;5033721;28;20128;-74
2024/01/15 09:38:51;;;;;;;22.67;7.18;;;14.50;92.50;;;;;;5033583;28;20107;-72
2024/01/15 09:41:17;;;;;;;19.38;6.70;;;14.50;92.40;;;;;;5016122;28;20084;-73
2024/01/15 09:43:43;;;;;;;22.73;6.68;;;14.50;92.40;;;;;;5033530;28;20485;-73
2024/01/15 09:46:09;;;;;;;21.55;7.15;;;14.50;92.40;;;;;;5033495;28;20441;-73
2024/01/15 09:48:35;;;;;;;23.95;7.18;;;14.60;92.50;;;;;;5033653;28;20037;-74
2024/01/15 09:51:06;;;;;;;13.60;5.72;;;14.60;92.40;;;;;;5032978;28;20042;-73
2024/01/15 09:53:32;;;;;;;14.82;5.88;;;14.60;92.60;;;;;;5033144;28;20033;-73
2024/01/15 09:55:58;;;;;;;21.85;6.65;;;14.70;92.30;;;;;;5015392;28;20033;-72
2024/01/15 09:58:24;;;;;;;14.80;6.28;;;14.80;92.30;;;;;;5033220;28;20037;-74
2024/01/15 10:00:51;;;;;;;15.05;5.90;;;14.80;92.20;;;;;;5033403;28;20045;-73
2024/01/15 10:03:17;;;;;;;17.58;5.80;;;14.90;92.10;;;;;;5033204;28;20032;-73
2024/01/15 10:05:44;;;;;;;19.95;7.03;;;15.10;92.10;;;;;;5033110;28;20487;-73
2024/01/15 10:08:11;;;;;;;15.80;6.45;;;15.20;92.00;;;;;;5033048;28;20469;-73
2024/01/15 10:10:37;;;;;;;18.73;6.63;;;15.40;91.80;;;;;;5033004;28;20080;-74
2024/01/15 10:13:04;;;;;;;15.23;5.97;;;15.50;91.60;;;;;;5032868;28;20041;-73
2024/01/15 10:15:36;;;;;;;21.10;5.50;;;15.70;91.60;;;;;;5033185;28;20064;-74
2024/01/15 10:18:03;;;;;;;18.10;5.85;;;15.90;91.40;;;;;;5015358;28;20374;-74
2024/01/15 10:20:31;;;;;;;19.08;6.22;;;16.00;91.20;;;;;;5032707;28;20111;-72
2024/01/15 10:22:58;;;;;;;17.60;5.68;;;16.10;91.20;;;;;;5033247;28;20025;-73
2024/01/15 10:25:25;;;;;;;26.25;6.30;;;16.20;91.00;;;;;;5032481;28;20037;-73
2024/01/15 10:28:01;;;;;;;22.13;6.03;;;16.20;91.00;;;;;;5032453;28;20409;-74
2024/01/15 10:30:27;;;;;;;21.83;5.97;;;16.10;91.00;;;;;;5032839;28;20048;-74
2024/01/15 22:49:07;;;;;;;37.72;19.00;;;11.40;92.20;;;;;;5037364;23;20535;-83
2024/01/15 22:51:32;;;;;;;29.90;18.40;;;11.40;92.50;;;;;;5018803;28;20045;-84
2024/01/15 22:53:58;;;;;;;31.85;17.58;;;11.30;92.50;;;;;;5015405;28;20022;-83
2024/01/15 22:56:24;;;;;;;24.05;16.67;;;11.20;92.50;;;;;;5014761;28;20081;-82
2024/01/15 22:58:49;;;;;;;34.33;17.90;;;11.30;92.60;;;;;;4996975;28;20044;-84
2024/01/15 23:01:15;;;;;;;32.20;18.13;;;11.20;92.50;;;;;;4996353;28;20061;-82
2024/01/15 23:03:41;;;;;;;33.05;18.17;;;11.20;92.70;;;;;;4996936;28;20030;-83
2024/01/15 23:06:20;;;;;;;29.30;18.20;;;11.10;92.70;;;;;;5014300;28;20502;-83
2024/01/15 23:08:46;;;;;;;28.08;17.75;;;11.10;92.90;;;;;;5012693;28;20026;-82
2024/01/15 23:11:12;;;;;;;28.27;17.08;;;11.10;92.90;;;;;;5029072;28;20130;-85
2024/01/15 23:13:42;;;;;;;28.35;17.95;;;11.10;92.80;;;;;;5018356;28;20046;-82
2024/01/15 23:16:12;;;;;;;33.65;18.90;;;11.10;92.90;;;;;;5014492;28;20045;-86
2024/01/15 23:18:41;;;;;;;31.83;18.13;;;11.10;92.90;;;;;;5018326;28;20041;-82
2024/01/15 23:21:08;;;;;;;32.30;18.73;;;11.10;92.90;;;;;;5016622;28;20029;-81
2024/01/15 23:23:34;;;;;;;37.75;18.15;;;11.10;93.00;;;;;;5014578;28;20065;-82
2024/01/15 23:25:59;;;;;;;30.85;18.05;;;11.20;93.00;;;;;;5020126;28;20061;-82
2024/01/15 23:28:25;;;;;;;27.38;17.58;;;11.20;93.00;;;;;;5020588;28;20386;-83
2024/01/15 23:30:51;;;;;;;30.33;18.38;;;11.20;93.00;;;;;;5014390;28;20083;-82
2024/01/15 23:33:16;;;;;;;28.77;17.42;;;11.10;92.80;;;;;;5013782;28;20069;-85
2024/01/15 23:35:42;;;;;;;31.08;17.25;;;11.10;92.80;;;;;;5013591;28;20393;-82
2024/01/15 23:38:08;;;;;;;28.30;17.35;;;11.10;92.90;;;;;;5014383;28;20085;-83
2024/01/15 23:40:34;;;;;;;27.75;17.48;;;11.10;92.90;;;;;;5013884;28;20104;-83
2024/01/15 23:42:59;;;;;;;28.33;17.27;;;11.00;93.00;;;;;;5013473;28;20026;-81
2024/01/15 23:45:25;;;;;;;28.80;17.38;;;11.00;93.00;;;;;;5013675;28;20034;-81
2024/01/15 23:47:59;;;;;;;22.90;16.45;;;10.90;93.00;;;;;;5013660;28;20045;-83
2024/01/15 23:50:25;;;;;;;24.73;16.80;;;10.90;92.80;;;;;;5013440;28;20406;-82
2024/01/15 23:52:51;;;;;;;26.30;16.90;;;10.90;93.20;;;;;;5013667;28;20030;-80
2024/01/15 23:55:16;;;;;;;27.02;16.88;;;10.90;93.10;;;;;;5012997;28;20156;-81
2024/01/15 23:57:42;;;;;;;23.55;16.75;;;10.90;93.10;;;;;;5012796;28;20045;-82
